Startpagina
METAR-TAF:

METAR-TAF

Vliegvelden :

Dubai, Verenigde Arabische Emiraten

Dubai International Airport

breedte: 25-15-10N, lengte: 055-21-52E, hoogte: 8 m

Actueel weer

Dit bericht is 45 minuten geleden gemaakt, om 06:00 UTC
Wind 5 kt uit het zuiden, variërend tussen het zuidzuidoosten en het westzuidwesten
Temperatuur 41°C
Vochtigheid 25%
Druk 998 hPa
Zicht: 7000 m

METAR: OMDB 220600Z 19005KT 150V250 7000 NSC 41/17 Q0998 BECMG 30013KT

Tijdstip: 10:45 (06:45 UTC)

Verwachting

Dit bericht is 1 uur en het 53 minuten geleden gemaakt, om 04:52 UTC
Verwachting geldig van 22 om 06 UTC tot 23 om 12 UTC
Wind 8 kt uit het zuiden
Zicht: 8000 m
Wijzigt naar
van 22 om 07 UTC tot 22 om 09 UTC
Wind 13 kt uit het westnoordwesten
Wijzigt naar
van 22 om 16 UTC tot 22 om 18 UTC
Wind 5 kt uit het oosten
Wijzigt naar
van 23 om 07 UTC tot 23 om 09 UTC
Wind 12 kt uit het noordwesten

TAF: OMDB 220452Z 2206/2312 19008KT 8000 NSC BECMG 2207/2209 30013KT BECMG 2216/2218 08005KT BECMG 2307/2309 32012KT

Waarnemingen en weersverwachtingen van meer dan 4000 vliegvelden (METAR en TAF).

De beschikbare stations zijn de gele en rode punten op de kaart.

Ga met uw muis naar het station om de naam te zien.

Klik dan om waarnemingen en weersverwachtingen te zien.

kaart wijzigen: klik op de groene knoppen met een zwart kruis om in te zoomen, op de groene knop met een streepje om uit te zoomen of op de groene pijlen voor aangrenzende kaarten.


METAR-TAF: